PWSweather.com
Personal Weather Stations
Station Observations
GEELONGWX1
Bell Post Hill, GeelongAU

Bell Post HillGeelongAU

Lat: -38.101, Lon: 144.326

Elevation: 204

Station Type: Davis Vantage Pro2

http://www.geelongweather.com

Latest ConditionsUpdated 8:00:02 AM GMT+10:10 Sunday, Feb 24, 2019
Currently Today's Max Today's Min Today's Average
Temperature 68.9°F20.5°C 68.9°F20.5°C 62.2°F16.8°C 63.7°F17.6°C
Dew Point 59.9°F15.5°C 59.9°F15.5°C 56.5°F13.6°C 57.5°F14.2°C
Winds 3.5 mph N5.6 kmh N 12.7 mph -20.4 kmh - - 6.8 mph 10.9 kmh
Wind Gusts 4.6 mph7.4 kmh 17.3 mph27.8 kmh - -
Humidity 73% 84% 73% 80%
Pressure 30.36 in1028.1 mb 30.36 in1028.1 mb 30.31 in1026.4 mb -
Hour Temp Dew Point Humidity Winds Wind Gusts Pressure Precip Precip Rate Daily Precip Total
08:00 AM 68.9°F20.5°C 59.9°F15.5°C 73% 3.5 mph N5.6 kmh N 4.6 mph7.4 kmh 30.36 in1028.1 mb - 0.00 in0.0 mm 0.00 in0.0 mm
07:50 AM 68.1°F20.1°C 59.5°F15.3°C 74% 3.5 mph NE5.6 kmh NE 6.9 mph11.1 kmh 30.36 in1028.1 mb - 0.00 in0.0 mm 0.00 in0.0 mm
07:40 AM 67.0°F19.4°C 59.5°F15.3°C 77% 2.3 mph NE3.7 kmh NE 8.1 mph13.0 kmh 30.36 in1028.1 mb - 0.00 in0.0 mm 0.00 in0.0 mm
07:30 AM 65.9°F18.8°C 59.2°F15.1°C 79% 3.5 mph NNE5.6 kmh NNE 6.9 mph11.1 kmh 30.36 in1028.1 mb - 0.00 in0.0 mm 0.00 in0.0 mm
07:20 AM 64.9°F18.3°C 58.9°F14.9°C 81% 3.5 mph N5.6 kmh N 3.5 mph5.6 kmh 30.36 in1028.1 mb - 0.00 in0.0 mm 0.00 in0.0 mm
07:10 AM 63.9°F17.7°C 58.6°F14.8°C 83% 4.6 mph N7.4 kmh N 5.8 mph9.3 kmh 30.36 in1028.1 mb - 0.00 in0.0 mm 0.00 in0.0 mm
07:00 AM 63.1°F17.3°C 57.9°F14.4°C 83% 2.3 mph NNE3.7 kmh NNE 6.9 mph11.1 kmh 30.35 in1027.8 mb - 0.00 in0.0 mm 0.00 in0.0 mm
06:50 AM 62.7°F17.1°C 57.5°F14.2°C 83% 2.3 mph NNE3.7 kmh NNE 3.5 mph5.6 kmh 30.35 in1027.8 mb - 0.00 in0.0 mm 0.00 in0.0 mm
06:40 AM 62.4°F16.9°C 57.5°F14.2°C 84% 2.3 mph NNE3.7 kmh NNE 3.5 mph5.6 kmh 30.35 in1027.8 mb - 0.00 in0.0 mm 0.00 in0.0 mm
06:30 AM 62.3°F16.8°C 57.1°F13.9°C 83% 2.3 mph NE3.7 kmh NE 3.5 mph5.6 kmh 30.35 in1027.8 mb - 0.00 in0.0 mm 0.00 in0.0 mm
06:20 AM 62.2°F16.8°C 57.0°F13.9°C 83% 2.3 mph NNE3.7 kmh NNE 3.5 mph5.6 kmh 30.34 in1027.4 mb - 0.00 in0.0 mm 0.00 in0.0 mm
06:10 AM 62.2°F16.8°C 57.0°F13.9°C 83% 3.5 mph NNE5.6 kmh NNE 5.8 mph9.3 kmh 30.34 in1027.4 mb - 0.00 in0.0 mm 0.00 in0.0 mm
06:00 AM 62.2°F16.8°C 57.0°F13.9°C 83% 6.9 mph NNE11.1 kmh NNE 10.4 mph16.7 kmh 30.33 in1027.1 mb - 0.00 in0.0 mm 0.00 in0.0 mm
05:50 AM 62.3°F16.8°C 57.1°F13.9°C 83% 4.6 mph NNE7.4 kmh NNE 9.2 mph14.8 kmh 30.33 in1027.1 mb - 0.00 in0.0 mm 0.00 in0.0 mm
05:40 AM 62.4°F16.9°C 57.2°F14.0°C 83% 5.8 mph NNE9.3 kmh NNE 10.4 mph16.7 kmh 30.33 in1027.1 mb - 0.00 in0.0 mm 0.00 in0.0 mm
05:30 AM 62.5°F16.9°C 57.3°F14.1°C 83% 4.6 mph NNE7.4 kmh NNE 9.2 mph14.8 kmh 30.32 in1026.8 mb - 0.00 in0.0 mm 0.00 in0.0 mm
05:20 AM 62.5°F16.9°C 57.3°F14.1°C 83% 5.8 mph NNE9.3 kmh NNE 10.4 mph16.7 kmh 30.32 in1026.8 mb - 0.00 in0.0 mm 0.00 in0.0 mm
05:10 AM 62.6°F17.0°C 57.0°F13.9°C 82% 5.8 mph NE9.3 kmh NE 8.1 mph13.0 kmh 30.32 in1026.8 mb - 0.00 in0.0 mm 0.00 in0.0 mm
05:00 AM 62.7°F17.1°C 57.1°F13.9°C 82% 4.6 mph NNE7.4 kmh NNE 10.4 mph16.7 kmh 30.32 in1026.8 mb - 0.00 in0.0 mm 0.00 in0.0 mm
04:50 AM 62.7°F17.1°C 57.1°F13.9°C 82% 9.2 mph NNE14.8 kmh NNE 11.5 mph18.5 kmh 30.32 in1026.8 mb - 0.00 in0.0 mm 0.00 in0.0 mm
04:40 AM 62.7°F17.1°C 57.1°F13.9°C 82% 4.6 mph NE7.4 kmh NE 8.1 mph13.0 kmh 30.32 in1026.8 mb - 0.00 in0.0 mm 0.00 in0.0 mm
04:30 AM 62.7°F17.1°C 57.1°F13.9°C 82% 8.1 mph NNE13.0 kmh NNE 11.5 mph18.5 kmh 30.32 in1026.8 mb - 0.00 in0.0 mm 0.00 in0.0 mm
04:20 AM 62.7°F17.1°C 56.8°F13.8°C 81% 5.8 mph NE9.3 kmh NE 8.1 mph13.0 kmh 30.31 in1026.4 mb - 0.00 in0.0 mm 0.00 in0.0 mm
04:10 AM 62.7°F17.1°C 56.8°F13.8°C 81% 9.2 mph NNE14.8 kmh NNE 16.1 mph25.9 kmh 30.32 in1026.8 mb - 0.00 in0.0 mm 0.00 in0.0 mm
04:00 AM 62.8°F17.1°C 56.9°F13.8°C 81% 6.9 mph NNE11.1 kmh NNE 9.2 mph14.8 kmh 30.32 in1026.8 mb - 0.00 in0.0 mm 0.00 in0.0 mm
03:50 AM 62.8°F17.1°C 56.5°F13.6°C 80% 10.4 mph NNE16.7 kmh NNE 12.7 mph20.4 kmh 30.31 in1026.4 mb - 0.00 in0.0 mm 0.00 in0.0 mm
03:40 AM 62.9°F17.2°C 56.6°F13.7°C 80% 11.5 mph NNE18.5 kmh NNE 15.0 mph24.1 kmh 30.32 in1026.8 mb - 0.00 in0.0 mm 0.00 in0.0 mm
03:30 AM 63.0°F17.2°C 56.7°F13.7°C 80% 10.4 mph NNE16.7 kmh NNE 12.7 mph20.4 kmh 30.32 in1026.8 mb - 0.00 in0.0 mm 0.00 in0.0 mm
03:20 AM 63.0°F17.2°C 56.7°F13.7°C 80% 9.2 mph NE14.8 kmh NE 12.7 mph20.4 kmh 30.32 in1026.8 mb - 0.00 in0.0 mm 0.00 in0.0 mm
03:10 AM 63.2°F17.3°C 56.9°F13.8°C 80% 10.4 mph NNE16.7 kmh NNE 15.0 mph24.1 kmh 30.32 in1026.8 mb - 0.00 in0.0 mm 0.00 in0.0 mm
03:00 AM 63.3°F17.4°C 57.0°F13.9°C 80% 9.2 mph NE14.8 kmh NE 13.8 mph22.2 kmh 30.32 in1026.8 mb - 0.00 in0.0 mm 0.00 in0.0 mm
02:50 AM 63.4°F17.4°C 57.1°F13.9°C 80% 12.7 mph NE20.4 kmh NE 16.1 mph25.9 kmh 30.33 in1027.1 mb - 0.00 in0.0 mm 0.00 in0.0 mm
02:40 AM 63.6°F17.6°C 57.3°F14.1°C 80% 9.2 mph NE14.8 kmh NE 13.8 mph22.2 kmh 30.33 in1027.1 mb - 0.00 in0.0 mm 0.00 in0.0 mm
02:30 AM 63.6°F17.6°C 57.4°F14.1°C 80% 9.2 mph NE14.8 kmh NE 12.7 mph20.4 kmh 30.32 in1026.8 mb - 0.00 in0.0 mm 0.00 in0.0 mm
02:20 AM 63.7°F17.6°C 57.4°F14.1°C 80% 9.2 mph NE14.8 kmh NE 11.5 mph18.5 kmh 30.33 in1027.1 mb - 0.00 in0.0 mm 0.00 in0.0 mm
02:10 AM 63.8°F17.7°C 57.5°F14.2°C 80% 8.1 mph NE13.0 kmh NE 11.5 mph18.5 kmh 30.33 in1027.1 mb - 0.00 in0.0 mm 0.00 in0.0 mm
02:00 AM 63.9°F17.7°C 57.6°F14.2°C 80% 9.2 mph NE14.8 kmh NE 11.5 mph18.5 kmh 30.33 in1027.1 mb - 0.00 in0.0 mm 0.00 in0.0 mm
01:50 AM 64.0°F17.8°C 57.7°F14.3°C 80% 9.2 mph NE14.8 kmh NE 11.5 mph18.5 kmh 30.33 in1027.1 mb - 0.00 in0.0 mm 0.00 in0.0 mm
01:40 AM 64.1°F17.8°C 57.4°F14.1°C 79% 9.2 mph NE14.8 kmh NE 11.5 mph18.5 kmh 30.33 in1027.1 mb - 0.00 in0.0 mm 0.00 in0.0 mm
01:30 AM 64.2°F17.9°C 57.5°F14.2°C 79% 9.2 mph NNE14.8 kmh NNE 13.8 mph22.2 kmh 30.33 in1027.1 mb - 0.00 in0.0 mm 0.00 in0.0 mm
01:20 AM 64.2°F17.9°C 57.6°F14.2°C 79% 8.1 mph NE13.0 kmh NE 16.1 mph25.9 kmh 30.33 in1027.1 mb - 0.00 in0.0 mm 0.00 in0.0 mm
01:10 AM 64.2°F17.9°C 57.6°F14.2°C 79% 12.7 mph NE20.4 kmh NE 17.3 mph27.8 kmh 30.33 in1027.1 mb - 0.00 in0.0 mm 0.00 in0.0 mm
01:00 AM 64.3°F17.9°C 57.6°F14.2°C 79% 10.4 mph NNE16.7 kmh NNE 12.7 mph20.4 kmh 30.34 in1027.4 mb - 0.00 in0.0 mm 0.00 in0.0 mm
12:50 AM 64.3°F17.9°C 57.6°F14.2°C 79% 10.4 mph NE16.7 kmh NE 15.0 mph24.1 kmh 30.34 in1027.4 mb - 0.00 in0.0 mm 0.00 in0.0 mm
12:40 AM 64.4°F18.0°C 57.4°F14.1°C 78% 3.5 mph NE5.6 kmh NE 11.5 mph18.5 kmh 30.34 in1027.4 mb - 0.00 in0.0 mm 0.00 in0.0 mm
12:30 AM 64.5°F18.1°C 57.1°F13.9°C 77% 6.9 mph NE11.1 kmh NE 10.4 mph16.7 kmh 30.34 in1027.4 mb - 0.00 in0.0 mm 0.00 in0.0 mm
12:20 AM 64.7°F18.2°C 57.3°F14.1°C 77% 8.1 mph NE13.0 kmh NE 10.4 mph16.7 kmh 30.34 in1027.4 mb - 0.00 in0.0 mm 0.00 in0.0 mm
12:10 AM 65.0°F18.3°C 57.2°F14.0°C 76% 4.6 mph NE7.4 kmh NE 8.1 mph13.0 kmh 30.34 in1027.4 mb - 0.00 in0.0 mm 0.00 in0.0 mm
12:00 AM 65.3°F18.5°C 57.5°F14.2°C 76% 5.8 mph NE9.3 kmh NE 8.1 mph13.0 kmh 30.34 in1027.4 mb - 0.00 in0.0 mm 0.00 in0.0 mm